Morton S Bouchard Jr — WSE9678 — position and weather

sailwx.info

Track history (hours):
 
Tides and Currents Weather Stations Pressure Air Temp Water Temp Dewpoint Dewpoint Depression Visibility Wind Speed Wind Dir Waves Ship Positions

Morton S Bouchard Jr

Owner: BOUCHARD TRANSPORTATION CO INC, MELVILLE, NY. More information available from US FCC via Universal Licensing System and Coast Guard Vessel Documentation Center.

Last reported at 2016-Sep-27 13:31 UTC. Time now 2016-Sep-27 13:50 UTC.
Position N 40°40' W 074°02'.

Length 33 m; draft 5 m.

Type: Tug. MMSI: 367006550.

Date/timePositionNaut miles runAvg speedWind from/ knotsBaromVisibWave heightAir tempDewpointWater temp
2016-Sep-27 13:31N 40°40' W 074°02'0 0.0
2016-Sep-27 10:31N 40°40' W 074°02'0 0.0
2016-Sep-27 00:33N 40°40' W 074°02'4 1.1
2016-Sep-26 20:33N 40°39' W 074°07'1 1.2
2016-Sep-26 19:33N 40°39' W 074°09'5 1.3
2016-Sep-26 15:33N 40°40' W 074°02'0 0.0
2016-Sep-26 13:33N 40°40' W 074°02'0 0.0
2016-Sep-26 11:33N 40°40' W 074°02'0 0.0
2016-Sep-26 08:33N 40°40' W 074°02'0 0.0
2016-Sep-26 02:33N 40°40' W 074°02'0 0.0
2016-Sep-26 01:33N 40°40' W 074°02'0 0.0
2016-Sep-26 00:33N 40°40' W 074°02'0 0.0
2016-Sep-25 21:34N 40°40' W 074°02'0 0.0
2016-Sep-25 17:34N 40°40' W 074°02'0 0.0
2016-Sep-25 16:34N 40°40' W 074°02'0 0.0
2016-Sep-25 15:34N 40°40' W 074°02'0 0.0
2016-Sep-25 12:34N 40°40' W 074°02'0 0.0
2016-Sep-25 11:33N 40°40' W 074°02'0 0.0
2016-Sep-25 10:34N 40°40' W 074°02'0 0.0
2016-Sep-25 09:33N 40°40' W 074°02'0 0.0
2016-Sep-25 07:34N 40°40' W 074°02'3 0.9
2016-Sep-25 04:33N 40°38' W 074°03'31 7.5
2016-Sep-25 00:26N 40°07' W 073°56'17 9.2
2016-Sep-24 22:33N 39°50' W 073°58'9 8.6
2016-Sep-24 21:33N 39°42' W 074°01'17 8.3
2016-Sep-24 19:32N 39°27' W 074°12'51 5.7
2016-Sep-24 10:32N 39°06' W 075°12'8 8.4
2016-Sep-24 09:33N 39°13' W 075°18'39 6.5
2016-Sep-24 03:31N 39°22' W 076°07'8 8.2
2016-Sep-24 02:32N 39°16' W 076°14'8 8.6
2016-Sep-24 01:33N 39°09' W 076°19'9 8.7
2016-Sep-24 00:33N 39°12' W 076°30'4 0.8
2016-Sep-23 19:31N 39°13' W 076°35'0 0.0
2016-Sep-23 17:20N 39°13' W 076°35'0 0.0
2016-Sep-23 16:33N 39°13' W 076°35'0 0.3
2016-Sep-23 15:33N 39°13' W 076°35'4 2.0
2016-Sep-23 13:34N 39°17' W 076°36'0 0.0
2016-Sep-23 09:34N 39°17' W 076°36'0 0.0
2016-Sep-23 06:34N 39°17' W 076°36'0 0.0
2016-Sep-23 04:34N 39°17' W 076°36'0 0.0
2016-Sep-23 03:34N 39°17' W 076°36'4 3.5
2016-Sep-23 02:33N 39°14' W 076°34'3 2.9
2016-Sep-23 01:34N 39°12' W 076°31'7 6.6
2016-Sep-23 00:34N 39°10' W 076°23'7 6.5
2016-Sep-22 23:34N 39°13' W 076°15'25 8.4
2016-Sep-22 20:33N 39°31' W 075°53'54 6.7
2016-Sep-22 12:33N 38°53' W 075°04'47 5.9
2016-Sep-22 04:30N 39°22' W 074°16'5 5.6
2016-Sep-22 03:32N 39°26' W 074°12'20 6.8
2016-Sep-22 00:33N 39°44' W 073°60'7 6.7
2016-Sep-21 23:33N 39°51' W 073°58'7 6.8
2016-Sep-21 22:33N 39°58' W 073°58'38 6.4
2016-Sep-21 16:33N 40°36' W 074°02'8 1.1
2016-Sep-21 09:33N 40°35' W 074°12'0 0.0
2016-Sep-21 08:33N 40°35' W 074°12'0 0.1
2016-Sep-21 05:34N 40°35' W 074°13'0 0.1
2016-Sep-21 03:33N 40°35' W 074°12'0 0.0
2016-Sep-21 02:33N 40°35' W 074°12'2 0.2
2016-Sep-20 17:34N 40°38' W 074°12'2 0.7
2016-Sep-20 14:33N 40°35' W 074°12'0 0.0
2016-Sep-20 13:32N 40°35' W 074°12'4 1.3
2016-Sep-20 10:31N 40°32' W 074°15'11 5.5
2016-Sep-20 08:33N 40°39' W 074°04'4 4.2
2016-Sep-20 07:33N 40°35' W 074°02'6 6.4
2016-Sep-20 06:34N 40°30' W 073°57'36 8.9
2016-Sep-20 02:32N 39°54' W 073°58'28 9.3
2016-Sep-19 23:33N 39°28' W 074°11'35 8.6
2016-Sep-19 19:29N 39°01' W 074°39'27 5.4
2016-Sep-19 14:31N 39°07' W 075°13'7 7.6
2016-Sep-19 13:33N 39°13' W 075°18'8 8.5
2016-Sep-19 12:34N 39°20' W 075°25'1010.1
2016-Sep-19 11:34N 39°27' W 075°33'12 6.0
2016-Sep-19 09:33N 39°32' W 075°48'14 7.1
2016-Sep-19 07:34N 39°24' W 076°03'7 7.2
2016-Sep-19 06:33N 39°20' W 076°11'18 5.8
2016-Sep-19 03:33N 39°13' W 076°32'2 1.5
2016-Sep-19 02:33N 39°14' W 076°34'3 1.7
2016-Sep-19 00:33N 39°17' W 076°36'0 0.0
2016-Sep-18 19:30N 39°17' W 076°36'0 0.0
2016-Sep-18 15:33N 39°17' W 076°36'0 0.0
2016-Sep-18 14:33N 39°17' W 076°36'0 0.0
2016-Sep-18 10:32N 39°17' W 076°35'3 3.4
2016-Sep-18 09:33N 39°14' W 076°34'37 5.3
2016-Sep-18 02:33N 39°32' W 075°52'6 6.2
2016-Sep-18 01:33N 39°32' W 075°44'6 5.5
2016-Sep-18 00:33N 39°33' W 075°37'9 4.5
2016-Sep-17 22:33N 39°25' W 075°31'6 5.6
2016-Sep-17 21:33N 39°21' W 075°26'5 5.3
2016-Sep-17 20:33N 39°17' W 075°22'7 5.5
2016-Sep-17 19:16N 39°11' W 075°17'28 5.0
2016-Sep-17 13:33N 38°49' W 074°54'  
Track history (hours):
 
Tides and Currents Weather Stations Pressure Air Temp Water Temp Dewpoint Dewpoint Depression Visibility Wind Speed Wind Dir Waves Ship Positions

Morton S Bouchard Jr

Owner: BOUCHARD TRANSPORTATION CO INC, MELVILLE, NY. More information available from US FCC via Universal Licensing System and Coast Guard Vessel Documentation Center.

Last reported at 2016-Sep-27 13:31 UTC. Time now 2016-Sep-27 13:50 UTC.
Position N 40°40' W 074°02'.

Length 33 m; draft 5 m.

Type: Tug. MMSI: 367006550.

Date/timePositionNaut miles runAvg speedWind from/ knotsBaromVisibWave heightAir tempDewpointWater temp
2016-Sep-27 13:31N 40°40' W 074°02'0 0.0
2016-Sep-27 10:31N 40°40' W 074°02'0 0.0
2016-Sep-27 00:33N 40°40' W 074°02'4 1.1
2016-Sep-26 20:33N 40°39' W 074°07'1 1.2
2016-Sep-26 19:33N 40°39' W 074°09'5 1.3
2016-Sep-26 15:33N 40°40' W 074°02'0 0.0
2016-Sep-26 13:33N 40°40' W 074°02'0 0.0
2016-Sep-26 11:33N 40°40' W 074°02'0 0.0
2016-Sep-26 08:33N 40°40' W 074°02'0 0.0
2016-Sep-26 02:33N 40°40' W 074°02'0 0.0
2016-Sep-26 01:33N 40°40' W 074°02'0 0.0
2016-Sep-26 00:33N 40°40' W 074°02'0 0.0
2016-Sep-25 21:34N 40°40' W 074°02'0 0.0
2016-Sep-25 17:34N 40°40' W 074°02'0 0.0
2016-Sep-25 16:34N 40°40' W 074°02'0 0.0
2016-Sep-25 15:34N 40°40' W 074°02'0 0.0
2016-Sep-25 12:34N 40°40' W 074°02'0 0.0
2016-Sep-25 11:33N 40°40' W 074°02'0 0.0
2016-Sep-25 10:34N 40°40' W 074°02'0 0.0
2016-Sep-25 09:33N 40°40' W 074°02'0 0.0
2016-Sep-25 07:34N 40°40' W 074°02'3 0.9
2016-Sep-25 04:33N 40°38' W 074°03'31 7.5
2016-Sep-25 00:26N 40°07' W 073°56'17 9.2
2016-Sep-24 22:33N 39°50' W 073°58'9 8.6
2016-Sep-24 21:33N 39°42' W 074°01'17 8.3
2016-Sep-24 19:32N 39°27' W 074°12'51 5.7
2016-Sep-24 10:32N 39°06' W 075°12'8 8.4
2016-Sep-24 09:33N 39°13' W 075°18'39 6.5
2016-Sep-24 03:31N 39°22' W 076°07'8 8.2
2016-Sep-24 02:32N 39°16' W 076°14'8 8.6
2016-Sep-24 01:33N 39°09' W 076°19'9 8.7
2016-Sep-24 00:33N 39°12' W 076°30'4 0.8
2016-Sep-23 19:31N 39°13' W 076°35'0 0.0
2016-Sep-23 17:20N 39°13' W 076°35'0 0.0
2016-Sep-23 16:33N 39°13' W 076°35'0 0.3
2016-Sep-23 15:33N 39°13' W 076°35'4 2.0
2016-Sep-23 13:34N 39°17' W 076°36'0 0.0
2016-Sep-23 09:34N 39°17' W 076°36'0 0.0
2016-Sep-23 06:34N 39°17' W 076°36'0 0.0
2016-Sep-23 04:34N 39°17' W 076°36'0 0.0
2016-Sep-23 03:34N 39°17' W 076°36'4 3.5
2016-Sep-23 02:33N 39°14' W 076°34'3 2.9
2016-Sep-23 01:34N 39°12' W 076°31'7 6.6
2016-Sep-23 00:34N 39°10' W 076°23'7 6.5
2016-Sep-22 23:34N 39°13' W 076°15'25 8.4
2016-Sep-22 20:33N 39°31' W 075°53'54 6.7
2016-Sep-22 12:33N 38°53' W 075°04'47 5.9
2016-Sep-22 04:30N 39°22' W 074°16'5 5.6
2016-Sep-22 03:32N 39°26' W 074°12'20 6.8
2016-Sep-22 00:33N 39°44' W 073°60'7 6.7
2016-Sep-21 23:33N 39°51' W 073°58'7 6.8
2016-Sep-21 22:33N 39°58' W 073°58'38 6.4
2016-Sep-21 16:33N 40°36' W 074°02'8 1.1
2016-Sep-21 09:33N 40°35' W 074°12'0 0.0
2016-Sep-21 08:33N 40°35' W 074°12'0 0.1
2016-Sep-21 05:34N 40°35' W 074°13'0 0.1
2016-Sep-21 03:33N 40°35' W 074°12'0 0.0
2016-Sep-21 02:33N 40°35' W 074°12'2 0.2
2016-Sep-20 17:34N 40°38' W 074°12'2 0.7
2016-Sep-20 14:33N 40°35' W 074°12'0 0.0
2016-Sep-20 13:32N 40°35' W 074°12'4 1.3
2016-Sep-20 10:31N 40°32' W 074°15'11 5.5
2016-Sep-20 08:33N 40°39' W 074°04'4 4.2
2016-Sep-20 07:33N 40°35' W 074°02'6 6.4
2016-Sep-20 06:34N 40°30' W 073°57'36 8.9
2016-Sep-20 02:32N 39°54' W 073°58'28 9.3
2016-Sep-19 23:33N 39°28' W 074°11'35 8.6
2016-Sep-19 19:29N 39°01' W 074°39'27 5.4
2016-Sep-19 14:31N 39°07' W 075°13'7 7.6
2016-Sep-19 13:33N 39°13' W 075°18'8 8.5
2016-Sep-19 12:34N 39°20' W 075°25'1010.1
2016-Sep-19 11:34N 39°27' W 075°33'12 6.0
2016-Sep-19 09:33N 39°32' W 075°48'14 7.1
2016-Sep-19 07:34N 39°24' W 076°03'7 7.2
2016-Sep-19 06:33N 39°20' W 076°11'18 5.8
2016-Sep-19 03:33N 39°13' W 076°32'2 1.5
2016-Sep-19 02:33N 39°14' W 076°34'3 1.7
2016-Sep-19 00:33N 39°17' W 076°36'0 0.0
2016-Sep-18 19:30N 39°17' W 076°36'0 0.0
2016-Sep-18 15:33N 39°17' W 076°36'0 0.0
2016-Sep-18 14:33N 39°17' W 076°36'0 0.0
2016-Sep-18 10:32N 39°17' W 076°35'3 3.4
2016-Sep-18 09:33N 39°14' W 076°34'37 5.3
2016-Sep-18 02:33N 39°32' W 075°52'6 6.2
2016-Sep-18 01:33N 39°32' W 075°44'6 5.5
2016-Sep-18 00:33N 39°33' W 075°37'9 4.5
2016-Sep-17 22:33N 39°25' W 075°31'6 5.6
2016-Sep-17 21:33N 39°21' W 075°26'5 5.3
2016-Sep-17 20:33N 39°17' W 075°22'7 5.5
2016-Sep-17 19:16N 39°11' W 075°17'28 5.0
2016-Sep-17 13:33N 38°49' W 074°54'  

Dump ship's entire track history